Decoded Metar for LYTV (TIVAT in SERBIA) (IATA:TIV) | Meteo·Mobile Aviation Weather
aviador You're here:

LYTV Decoded Metar

TIVAT in SERBIA
Report Time2018-09-22 08:30:00
UTC Time2018-09-22 08:47:55
Flight Rules vfr VFR
WindVRB at 01 kt
Visibility9999 m
Phenomena:N/A
Clouds:Few 030 Hf
Expected CloudBase > 3,600 ft AGL from Temp-Dew spread
CeilingNone
Temp25°C (ISA +10)
Dew Point16°C (57% RH)
QNH1018 hPa
Density Alt1,253 ft
Elevation16 ft
Report Wrong Elevation
Raw Report
LYTV 220830Z VRB01KT 9999 FEW030 25/16 Q1018 NOSIG=

Extra information for LYTV:More info

Metar Taf Metar & Taf Last 4 Metars F.Rules Stats Wind Profile Meteogram Temp Stats Airport Information Weather charts Add Link Nearby VenuesMetar ALERT Operation Metar Decoded Social comments